sensor_id;sensor_type;location;lat;lon;timestamp;pressure;altitude;pressure_sealevel;temperature;humidity
49529;BME280;35423;37.320;-121.762;2023-05-19T00:01:38;99751.04;;;39.84;9.94
49529;BME280;35423;37.320;-121.762;2023-05-19T00:04:04;99751.80;;;40.02;9.82
49529;BME280;35423;37.320;-121.762;2023-05-19T00:06:30;99753.70;;;39.56;9.80
49529;BME280;35423;37.320;-121.762;2023-05-19T00:09:05;99753.84;;;39.83;9.87
49529;BME280;35423;37.320;-121.762;2023-05-19T00:11:36;99758.82;;;39.72;10.02
49529;BME280;35423;37.320;-121.762;2023-05-19T00:13:59;99758.70;;;39.59;10.13
49529;BME280;35423;37.320;-121.762;2023-05-19T00:16:26;99758.31;;;39.32;10.11
49529;BME280;35423;37.320;-121.762;2023-05-19T00:18:55;99751.11;;;39.30;10.00
49529;BME280;35423;37.320;-121.762;2023-05-19T00:21:20;99752.98;;;39.25;9.92
49529;BME280;35423;37.320;-121.762;2023-05-19T00:23:46;99748.13;;;39.20;9.88
49529;BME280;35423;37.320;-121.762;2023-05-19T00:26:13;99746.31;;;39.17;10.03
49529;BME280;35423;37.320;-121.762;2023-05-19T00:28:46;99746.62;;;39.30;10.07
49529;BME280;35423;37.320;-121.762;2023-05-19T00:31:11;99745.53;;;39.00;10.20
49529;BME280;35423;37.320;-121.762;2023-05-19T00:33:39;99739.14;;;39.17;10.29
49529;BME280;35423;37.320;-121.762;2023-05-19T00:36:06;99740.12;;;38.81;10.36
49529;BME280;35423;37.320;-121.762;2023-05-19T00:38:35;99738.17;;;39.01;10.26
49529;BME280;35423;37.320;-121.762;2023-05-19T00:41:02;99739.35;;;38.94;10.40
49529;BME280;35423;37.320;-121.762;2023-05-19T00:43:27;99737.80;;;38.70;10.59
49529;BME280;35423;37.320;-121.762;2023-05-19T00:45:54;99738.49;;;38.68;10.81
49529;BME280;35423;37.320;-121.762;2023-05-19T00:48:25;99741.51;;;39.06;10.98
49529;BME280;35423;37.320;-121.762;2023-05-19T00:50:52;99743.68;;;38.75;11.15
49529;BME280;35423;37.320;-121.762;2023-05-19T00:53:19;99747.16;;;38.61;11.22
49529;BME280;35423;37.320;-121.762;2023-05-19T00:55:47;99752.05;;;38.45;11.33
49529;BME280;35423;37.320;-121.762;2023-05-19T00:58:13;99751.02;;;38.23;11.40
49529;BME280;35423;37.320;-121.762;2023-05-19T01:00:38;99752.60;;;38.32;11.45
49529;BME280;35423;37.320;-121.762;2023-05-19T01:03:11;99754.78;;;38.50;11.57
49529;BME280;35423;37.320;-121.762;2023-05-19T01:05:40;99752.07;;;38.07;11.64
49529;BME280;35423;37.320;-121.762;2023-05-19T01:08:06;99757.71;;;37.89;11.74
49529;BME280;35423;37.320;-121.762;2023-05-19T01:10:35;99759.30;;;37.76;11.75
49529;BME280;35423;37.320;-121.762;2023-05-19T01:13:00;99758.05;;;37.48;11.76
49529;BME280;35423;37.320;-121.762;2023-05-19T01:15:26;99760.50;;;37.91;11.78
49529;BME280;35423;37.320;-121.762;2023-05-19T01:17:57;99759.39;;;37.63;11.76
49529;BME280;35423;37.320;-121.762;2023-05-19T01:20:21;99756.29;;;37.35;11.52
49529;BME280;35423;37.320;-121.762;2023-05-19T01:22:58;99757.45;;;37.53;11.45
49529;BME280;35423;37.320;-121.762;2023-05-19T01:25:22;99756.85;;;37.69;11.30
49529;BME280;35423;37.320;-121.762;2023-05-19T01:32:32;99756.04;;;37.21;11.41
49529;BME280;35423;37.320;-121.762;2023-05-19T01:34:56;99756.17;;;37.09;11.54
49529;BME280;35423;37.320;-121.762;2023-05-19T01:37:21;99757.92;;;37.00;11.59
49529;BME280;35423;37.320;-121.762;2023-05-19T01:39:50;99761.37;;;37.15;11.59
49529;BME280;35423;37.320;-121.762;2023-05-19T01:42:14;99763.09;;;37.05;11.60
49529;BME280;35423;37.320;-121.762;2023-05-19T01:44:40;99760.13;;;36.98;11.69
49529;BME280;35423;37.320;-121.762;2023-05-19T01:47:07;99763.01;;;36.63;11.80
49529;BME280;35423;37.320;-121.762;2023-05-19T01:49:39;99762.46;;;36.55;11.86
49529;BME280;35423;37.320;-121.762;2023-05-19T01:52:05;99762.51;;;36.68;11.89
49529;BME280;35423;37.320;-121.762;2023-05-19T01:54:30;99765.66;;;36.56;11.98
49529;BME280;35423;37.320;-121.762;2023-05-19T01:57:08;99767.53;;;36.46;11.97
49529;BME280;35423;37.320;-121.762;2023-05-19T01:59:40;99768.69;;;36.52;12.01
49529;BME280;35423;37.320;-121.762;2023-05-19T02:01:57;99768.79;;;36.35;12.12
49529;BME280;35423;37.320;-121.762;2023-05-19T02:04:29;99773.23;;;35.97;12.15
49529;BME280;35423;37.320;-121.762;2023-05-19T02:06:58;99774.75;;;35.81;12.21
49529;BME280;35423;37.320;-121.762;2023-05-19T02:09:24;99770.17;;;35.94;12.24
49529;BME280;35423;37.320;-121.762;2023-05-19T02:11:53;99768.55;;;35.65;12.28
49529;BME280;35423;37.320;-121.762;2023-05-19T02:14:16;99768.64;;;35.76;12.35
49529;BME280;35423;37.320;-121.762;2023-05-19T02:16:42;99772.34;;;35.79;12.47
49529;BME280;35423;37.320;-121.762;2023-05-19T02:19:05;99776.26;;;35.56;12.57
49529;BME280;35423;37.320;-121.762;2023-05-19T02:21:48;99780.69;;;35.62;12.60
49529;BME280;35423;37.320;-121.762;2023-05-19T02:24:18;99785.97;;;35.51;12.57
49529;BME280;35423;37.320;-121.762;2023-05-19T02:26:42;99783.21;;;35.04;12.46
49529;BME280;35423;37.320;-121.762;2023-05-19T02:29:07;99782.85;;;35.15;12.56
49529;BME280;35423;37.320;-121.762;2023-05-19T02:31:32;99779.99;;;34.98;12.80
49529;BME280;35423;37.320;-121.762;2023-05-19T02:33:59;99780.79;;;34.80;13.15
49529;BME280;35423;37.320;-121.762;2023-05-19T02:36:27;99783.17;;;34.64;13.60
49529;BME280;35423;37.320;-121.762;2023-05-19T02:38:56;99783.64;;;34.72;13.91
49529;BME280;35423;37.320;-121.762;2023-05-19T02:41:21;99788.02;;;34.51;14.25
49529;BME280;35423;37.320;-121.762;2023-05-19T02:43:53;99790.33;;;34.28;14.47
49529;BME280;35423;37.320;-121.762;2023-05-19T02:46:20;99790.80;;;34.07;14.61
49529;BME280;35423;37.320;-121.762;2023-05-19T02:48:45;99790.43;;;33.85;14.72
49529;BME280;35423;37.320;-121.762;2023-05-19T02:51:15;99795.08;;;33.69;14.77
49529;BME280;35423;37.320;-121.762;2023-05-19T02:53:44;99804.49;;;33.45;14.95
49529;BME280;35423;37.320;-121.762;2023-05-19T02:56:11;99809.90;;;33.78;15.02
49529;BME280;35423;37.320;-121.762;2023-05-19T02:58:40;99812.01;;;33.39;15.13
49529;BME280;35423;37.320;-121.762;2023-05-19T03:01:06;99812.14;;;33.29;15.32
49529;BME280;35423;37.320;-121.762;2023-05-19T03:03:46;99809.97;;;32.99;15.36
49529;BME280;35423;37.320;-121.762;2023-05-19T03:06:06;99814.97;;;33.34;15.48
49529;BME280;35423;37.320;-121.762;2023-05-19T03:08:31;99814.45;;;32.92;15.66
49529;BME280;35423;37.320;-121.762;2023-05-19T03:10:57;99819.54;;;33.04;15.86
49529;BME280;35423;37.320;-121.762;2023-05-19T03:13:32;99820.29;;;32.84;16.10
49529;BME280;35423;37.320;-121.762;2023-05-19T03:16:01;99818.04;;;32.87;16.29
49529;BME280;35423;37.320;-121.762;2023-05-19T03:18:31;99824.30;;;32.52;16.46
49529;BME280;35423;37.320;-121.762;2023-05-19T03:21:03;99831.40;;;32.61;16.59
49529;BME280;35423;37.320;-121.762;2023-05-19T03:23:36;99832.29;;;32.25;16.75
49529;BME280;35423;37.320;-121.762;2023-05-19T03:26:02;99833.51;;;32.11;16.85
49529;BME280;35423;37.320;-121.762;2023-05-19T03:28:28;99833.38;;;32.20;17.00
49529;BME280;35423;37.320;-121.762;2023-05-19T03:30:56;99838.72;;;32.34;17.15
49529;BME280;35423;37.320;-121.762;2023-05-19T03:33:21;99842.35;;;31.92;17.30
49529;BME280;35423;37.320;-121.762;2023-05-19T03:35:50;99842.72;;;31.78;17.41
49529;BME280;35423;37.320;-121.762;2023-05-19T03:38:18;99841.91;;;31.94;17.49
49529;BME280;35423;37.320;-121.762;2023-05-19T03:40:52;99842.17;;;31.78;17.64
49529;BME280;35423;37.320;-121.762;2023-05-19T03:43:19;99842.82;;;31.66;17.83
49529;BME280;35423;37.320;-121.762;2023-05-19T03:45:46;99843.14;;;31.57;17.89
49529;BME280;35423;37.320;-121.762;2023-05-19T03:48:12;99840.07;;;31.16;18.06
49529;BME280;35423;37.320;-121.762;2023-05-19T03:50:40;99837.10;;;31.58;18.16
49529;BME280;35423;37.320;-121.762;2023-05-19T03:53:09;99835.21;;;31.26;18.26
49529;BME280;35423;37.320;-121.762;2023-05-19T03:55:33;99834.26;;;31.17;18.31
49529;BME280;35423;37.320;-121.762;2023-05-19T03:58:01;99834.64;;;31.08;18.59
49529;BME280;35423;37.320;-121.762;2023-05-19T04:00:28;99837.28;;;30.99;18.58
49529;BME280;35423;37.320;-121.762;2023-05-19T04:02:54;99839.43;;;30.87;18.71
49529;BME280;35423;37.320;-121.762;2023-05-19T04:05:25;99842.11;;;30.99;18.83
49529;BME280;35423;37.320;-121.762;2023-05-19T04:07:50;99841.17;;;30.87;18.99
49529;BME280;35423;37.320;-121.762;2023-05-19T04:10:16;99842.07;;;31.00;18.98
49529;BME280;35423;37.320;-121.762;2023-05-19T04:12:43;99848.05;;;30.90;19.12
49529;BME280;35423;37.320;-121.762;2023-05-19T04:15:09;99852.32;;;30.79;19.16
49529;BME280;35423;37.320;-121.762;2023-05-19T04:17:34;99856.51;;;30.70;19.15
49529;BME280;35423;37.320;-121.762;2023-05-19T04:20:03;99857.42;;;30.57;19.23
49529;BME280;35423;37.320;-121.762;2023-05-19T04:22:36;99857.55;;;30.21;19.28
49529;BME280;35423;37.320;-121.762;2023-05-19T04:25:04;99859.34;;;30.30;19.37
49529;BME280;35423;37.320;-121.762;2023-05-19T04:27:41;99860.32;;;30.16;19.52
49529;BME280;35423;37.320;-121.762;2023-05-19T04:30:08;99864.30;;;30.35;19.62
49529;BME280;35423;37.320;-121.762;2023-05-19T04:32:33;99864.23;;;30.00;19.70
49529;BME280;35423;37.320;-121.762;2023-05-19T04:35:01;99863.32;;;29.96;19.71
49529;BME280;35423;37.320;-121.762;2023-05-19T04:37:29;99862.31;;;30.36;19.77
49529;BME280;35423;37.320;-121.762;2023-05-19T04:39:55;99861.90;;;29.79;19.87
49529;BME280;35423;37.320;-121.762;2023-05-19T04:42:25;99863.67;;;29.74;19.96
49529;BME280;35423;37.320;-121.762;2023-05-19T04:44:55;99863.79;;;30.13;20.00
49529;BME280;35423;37.320;-121.762;2023-05-19T04:47:28;99861.66;;;29.52;20.05
49529;BME280;35423;37.320;-121.762;2023-05-19T04:50:01;99864.37;;;29.62;20.16
49529;BME280;35423;37.320;-121.762;2023-05-19T04:52:27;99867.21;;;29.41;20.26
49529;BME280;35423;37.320;-121.762;2023-05-19T04:54:52;99873.19;;;29.31;20.31
49529;BME280;35423;37.320;-121.762;2023-05-19T04:57:20;99879.36;;;29.22;20.41
49529;BME280;35423;37.320;-121.762;2023-05-19T04:59:46;99882.22;;;29.38;20.52
49529;BME280;35423;37.320;-121.762;2023-05-19T05:02:19;99882.37;;;29.25;20.55
49529;BME280;35423;37.320;-121.762;2023-05-19T05:04:43;99880.47;;;29.15;20.54
49529;BME280;35423;37.320;-121.762;2023-05-19T05:07:09;99884.52;;;28.80;20.57
49529;BME280;35423;37.320;-121.762;2023-05-19T05:09:37;99887.50;;;28.93;20.63
49529;BME280;35423;37.320;-121.762;2023-05-19T05:12:04;99883.87;;;28.85;20.67
49529;BME280;35423;37.320;-121.762;2023-05-19T05:14:43;99884.52;;;28.73;20.80
49529;BME280;35423;37.320;-121.762;2023-05-19T05:17:11;99886.35;;;28.61;20.92
49529;BME280;35423;37.320;-121.762;2023-05-19T05:19:36;99884.47;;;28.74;20.99
49529;BME280;35423;37.320;-121.762;2023-05-19T05:22:09;99880.95;;;28.66;21.04
49529;BME280;35423;37.320;-121.762;2023-05-19T05:25:01;99876.06;;;28.60;21.01
49529;BME280;35423;37.320;-121.762;2023-05-19T05:27:28;99877.06;;;28.74;21.09
49529;BME280;35423;37.320;-121.762;2023-05-19T05:29:56;99874.48;;;28.17;21.16
49529;BME280;35423;37.320;-121.762;2023-05-19T05:32:24;99874.85;;;28.57;21.20
49529;BME280;35423;37.320;-121.762;2023-05-19T05:34:52;99875.21;;;28.00;21.10
49529;BME280;35423;37.320;-121.762;2023-05-19T05:37:21;99878.13;;;28.30;21.22
49529;BME280;35423;37.320;-121.762;2023-05-19T05:39:46;99885.21;;;28.43;21.29
49529;BME280;35423;37.320;-121.762;2023-05-19T05:42:14;99886.14;;;28.09;21.40
49529;BME280;35423;37.320;-121.762;2023-05-19T05:44:42;99890.11;;;27.97;21.52
49529;BME280;35423;37.320;-121.762;2023-05-19T05:47:11;99894.01;;;27.88;21.58
49529;BME280;35423;37.320;-121.762;2023-05-19T05:49:41;99894.48;;;27.55;21.72
49529;BME280;35423;37.320;-121.762;2023-05-19T05:52:10;99898.47;;;27.74;21.79
49529;BME280;35423;37.320;-121.762;2023-05-19T05:54:36;99899.11;;;27.68;21.89
49529;BME280;35423;37.320;-121.762;2023-05-19T05:57:06;99900.83;;;27.60;21.96
49529;BME280;35423;37.320;-121.762;2023-05-19T05:59:32;99903.35;;;27.54;21.98
49529;BME280;35423;37.320;-121.762;2023-05-19T06:02:01;99904.34;;;27.47;22.01
49529;BME280;35423;37.320;-121.762;2023-05-19T06:04:26;99903.57;;;27.34;22.08
49529;BME280;35423;37.320;-121.762;2023-05-19T06:06:54;99904.22;;;27.51;22.01
49529;BME280;35423;37.320;-121.762;2023-05-19T06:09:21;99903.04;;;27.17;22.19
49529;BME280;35423;37.320;-121.762;2023-05-19T06:11:46;99905.44;;;27.06;22.31
49529;BME280;35423;37.320;-121.762;2023-05-19T06:14:13;99908.38;;;27.23;22.36
49529;BME280;35423;37.320;-121.762;2023-05-19T06:16:56;99909.72;;;27.15;22.41
49529;BME280;35423;37.320;-121.762;2023-05-19T06:19:24;99911.28;;;27.06;22.43
49529;BME280;35423;37.320;-121.762;2023-05-19T06:21:50;99908.29;;;26.98;22.47
49529;BME280;35423;37.320;-121.762;2023-05-19T06:24:15;99908.04;;;26.89;22.53
49529;BME280;35423;37.320;-121.762;2023-05-19T06:26:42;99906.62;;;26.77;22.65
49529;BME280;35423;37.320;-121.762;2023-05-19T06:29:10;99903.79;;;26.66;22.71
49529;BME280;35423;37.320;-121.762;2023-05-19T06:31:32;99905.26;;;26.60;22.76
49529;BME280;35423;37.320;-121.762;2023-05-19T06:34:00;99905.76;;;26.78;22.81
49529;BME280;35423;37.320;-121.762;2023-05-19T06:36:26;99912.28;;;26.69;22.94
49529;BME280;35423;37.320;-121.762;2023-05-19T06:38:53;99911.67;;;26.83;23.01
49529;BME280;35423;37.320;-121.762;2023-05-19T06:41:19;99909.67;;;26.53;23.10
49529;BME280;35423;37.320;-121.762;2023-05-19T06:43:56;99908.65;;;26.69;23.14
49529;BME280;35423;37.320;-121.762;2023-05-19T06:46:19;99908.74;;;26.39;23.16
49529;BME280;35423;37.320;-121.762;2023-05-19T06:48:45;99909.41;;;26.47;23.26
49529;BME280;35423;37.320;-121.762;2023-05-19T06:51:11;99907.44;;;26.16;23.39
49529;BME280;35423;37.320;-121.762;2023-05-19T06:53:38;99902.83;;;26.33;23.48
49529;BME280;35423;37.320;-121.762;2023-05-19T06:56:05;99901.42;;;26.49;23.54
49529;BME280;35423;37.320;-121.762;2023-05-19T06:58:39;99901.66;;;26.18;23.65
49529;BME280;35423;37.320;-121.762;2023-05-19T07:01:05;99905.55;;;25.89;23.73
49529;BME280;35423;37.320;-121.762;2023-05-19T07:03:31;99903.05;;;26.28;23.80
49529;BME280;35423;37.320;-121.762;2023-05-19T07:06:03;99899.71;;;26.20;23.89
49529;BME280;35423;37.320;-121.762;2023-05-19T07:08:28;99896.68;;;25.88;24.00
49529;BME280;35423;37.320;-121.762;2023-05-19T07:10:57;99897.35;;;26.04;24.13
49529;BME280;35423;37.320;-121.762;2023-05-19T07:13:22;99899.59;;;25.50;24.28
49529;BME280;35423;37.320;-121.762;2023-05-19T07:15:50;99903.82;;;25.87;24.37
49529;BME280;35423;37.320;-121.762;2023-05-19T07:18:17;99907.91;;;25.77;24.57
49529;BME280;35423;37.320;-121.762;2023-05-19T07:20:43;99912.24;;;25.68;24.62
49529;BME280;35423;37.320;-121.762;2023-05-19T07:23:08;99919.13;;;25.86;24.75
49529;BME280;35423;37.320;-121.762;2023-05-19T07:25:34;99921.83;;;25.53;24.82
49529;BME280;35423;37.320;-121.762;2023-05-19T07:28:03;99919.85;;;25.50;24.86
49529;BME280;35423;37.320;-121.762;2023-05-19T07:30:28;99915.82;;;25.42;24.93
49529;BME280;35423;37.320;-121.762;2023-05-19T07:32:53;99913.20;;;25.34;25.06
49529;BME280;35423;37.320;-121.762;2023-05-19T07:35:31;99913.30;;;25.29;25.13
49529;BME280;35423;37.320;-121.762;2023-05-19T07:37:51;99915.26;;;25.20;25.26
49529;BME280;35423;37.320;-121.762;2023-05-19T07:40:23;99913.94;;;25.61;25.36
49529;BME280;35423;37.320;-121.762;2023-05-19T07:42:49;99914.83;;;25.32;25.39
49529;BME280;35423;37.320;-121.762;2023-05-19T07:45:21;99914.69;;;25.23;25.46
49529;BME280;35423;37.320;-121.762;2023-05-19T07:47:47;99910.76;;;24.88;25.47
49529;BME280;35423;37.320;-121.762;2023-05-19T07:50:17;99910.39;;;25.10;25.46
49529;BME280;35423;37.320;-121.762;2023-05-19T07:52:42;99909.45;;;25.04;25.48
49529;BME280;35423;37.320;-121.762;2023-05-19T07:55:10;99906.29;;;24.94;25.55
49529;BME280;35423;37.320;-121.762;2023-05-19T07:57:37;99904.09;;;25.10;25.61
49529;BME280;35423;37.320;-121.762;2023-05-19T08:00:01;99899.63;;;25.01;25.71
49529;BME280;35423;37.320;-121.762;2023-05-19T08:02:27;99901.32;;;24.73;25.75
49529;BME280;35423;37.320;-121.762;2023-05-19T08:04:52;99902.15;;;24.90;25.82
49529;BME280;35423;37.320;-121.762;2023-05-19T08:07:19;99902.74;;;24.64;25.89
49529;BME280;35423;37.320;-121.762;2023-05-19T08:09:45;99905.26;;;24.61;25.91
49529;BME280;35423;37.320;-121.762;2023-05-19T08:12:10;99904.29;;;24.76;25.92
49529;BME280;35423;37.320;-121.762;2023-05-19T08:14:38;99901.96;;;24.69;25.98
49529;BME280;35423;37.320;-121.762;2023-05-19T08:17:14;99903.80;;;24.59;26.05
49529;BME280;35423;37.320;-121.762;2023-05-19T08:19:40;99905.84;;;24.51;26.13
49529;BME280;35423;37.320;-121.762;2023-05-19T08:22:11;99908.21;;;24.43;26.24
49529;BME280;35423;37.320;-121.762;2023-05-19T08:24:31;99908.14;;;24.37;26.31
49529;BME280;35423;37.320;-121.762;2023-05-19T08:26:58;99905.76;;;24.33;26.37
49529;BME280;35423;37.320;-121.762;2023-05-19T08:29:29;99903.95;;;24.26;26.47
49529;BME280;35423;37.320;-121.762;2023-05-19T08:31:58;99904.58;;;24.20;26.55
49529;BME280;35423;37.320;-121.762;2023-05-19T08:34:31;99905.57;;;24.13;26.66
49529;BME280;35423;37.320;-121.762;2023-05-19T08:36:57;99906.86;;;24.05;26.74
49529;BME280;35423;37.320;-121.762;2023-05-19T08:39:23;99908.57;;;24.01;26.76
49529;BME280;35423;37.320;-121.762;2023-05-19T08:41:53;99906.35;;;23.94;26.82
49529;BME280;35423;37.320;-121.762;2023-05-19T08:44:19;99902.64;;;23.88;26.84
49529;BME280;35423;37.320;-121.762;2023-05-19T08:46:45;99901.94;;;23.79;26.96
49529;BME280;35423;37.320;-121.762;2023-05-19T08:49:13;99899.09;;;24.18;27.12
49529;BME280;35423;37.320;-121.762;2023-05-19T08:51:48;99904.02;;;23.92;27.11
49529;BME280;35423;37.320;-121.762;2023-05-19T08:54:14;99905.38;;;24.07;27.17
49529;BME280;35423;37.320;-121.762;2023-05-19T08:56:43;99903.85;;;23.76;27.31
49529;BME280;35423;37.320;-121.762;2023-05-19T08:59:20;99906.26;;;23.91;27.41
49529;BME280;35423;37.320;-121.762;2023-05-19T09:01:46;99906.62;;;23.86;27.47
49529;BME280;35423;37.320;-121.762;2023-05-19T09:04:12;99904.34;;;23.80;27.55
49529;BME280;35423;37.320;-121.762;2023-05-19T09:06:40;99902.90;;;23.53;27.60
49529;BME280;35423;37.320;-121.762;2023-05-19T09:09:06;99900.72;;;23.70;27.61
49529;BME280;35423;37.320;-121.762;2023-05-19T09:11:34;99903.51;;;23.61;27.68
49529;BME280;35423;37.320;-121.762;2023-05-19T09:14:02;99904.74;;;23.05;27.74
49529;BME280;35423;37.320;-121.762;2023-05-19T09:16:36;99908.77;;;23.48;27.78
49529;BME280;35423;37.320;-121.762;2023-05-19T09:19:02;99913.03;;;23.43;27.87
49529;BME280;35423;37.320;-121.762;2023-05-19T09:21:28;99917.07;;;23.15;27.88
49529;BME280;35423;37.320;-121.762;2023-05-19T09:23:53;99921.27;;;23.54;27.90
49529;BME280;35423;37.320;-121.762;2023-05-19T09:26:20;99920.71;;;23.24;27.92
49529;BME280;35423;37.320;-121.762;2023-05-19T09:28:49;99920.92;;;23.15;27.97
49529;BME280;35423;37.320;-121.762;2023-05-19T09:31:17;99918.94;;;23.07;28.07
49529;BME280;35423;37.320;-121.762;2023-05-19T09:33:43;99916.29;;;23.24;28.14
49529;BME280;35423;37.320;-121.762;2023-05-19T09:36:12;99916.49;;;23.17;28.22
49529;BME280;35423;37.320;-121.762;2023-05-19T09:38:38;99916.92;;;23.12;28.26
49529;BME280;35423;37.320;-121.762;2023-05-19T09:41:08;99915.06;;;23.09;28.35
49529;BME280;35423;37.320;-121.762;2023-05-19T09:43:35;99913.95;;;23.28;28.41
49529;BME280;35423;37.320;-121.762;2023-05-19T09:46:03;99911.08;;;22.92;28.57
49529;BME280;35423;37.320;-121.762;2023-05-19T09:48:34;99907.98;;;22.67;28.41
49529;BME280;35423;37.320;-121.762;2023-05-19T09:51:01;99901.84;;;22.65;28.47
49529;BME280;35423;37.320;-121.762;2023-05-19T09:53:29;99900.01;;;22.64;28.39
49529;BME280;35423;37.320;-121.762;2023-05-19T09:55:55;99901.62;;;22.56;28.47
49529;BME280;35423;37.320;-121.762;2023-05-19T09:58:19;99901.37;;;22.71;28.55
49529;BME280;35423;37.320;-121.762;2023-05-19T10:00:46;99899.33;;;22.58;28.61
49529;BME280;35423;37.320;-121.762;2023-05-19T10:03:11;99893.86;;;22.49;28.65
49529;BME280;35423;37.320;-121.762;2023-05-19T10:05:48;99888.96;;;22.70;28.66
49529;BME280;35423;37.320;-121.762;2023-05-19T10:08:08;99886.20;;;22.18;28.71
49529;BME280;35423;37.320;-121.762;2023-05-19T10:10:33;99888.76;;;22.60;28.85
49529;BME280;35423;37.320;-121.762;2023-05-19T10:12:59;99888.93;;;22.54;29.00
49529;BME280;35423;37.320;-121.762;2023-05-19T10:15:26;99889.37;;;22.26;29.06
49529;BME280;35423;37.320;-121.762;2023-05-19T10:17:54;99889.73;;;22.48;29.16
49529;BME280;35423;37.320;-121.762;2023-05-19T10:20:21;99887.74;;;22.15;29.15
49529;BME280;35423;37.320;-121.762;2023-05-19T10:23:01;99889.31;;;22.34;29.15
49529;BME280;35423;37.320;-121.762;2023-05-19T10:25:33;99889.13;;;22.28;29.19
49529;BME280;35423;37.320;-121.762;2023-05-19T10:28:00;99889.25;;;22.21;29.23
49529;BME280;35423;37.320;-121.762;2023-05-19T10:30:27;99887.94;;;21.91;29.23
49529;BME280;35423;37.320;-121.762;2023-05-19T10:32:52;99888.73;;;22.12;29.27
49529;BME280;35423;37.320;-121.762;2023-05-19T10:37:52;99890.08;;;21.98;29.46
49529;BME280;35423;37.320;-121.762;2023-05-19T10:40:15;99888.99;;;21.97;29.51
49529;BME280;35423;37.320;-121.762;2023-05-19T10:43:01;99889.23;;;21.96;29.53
49529;BME280;35423;37.320;-121.762;2023-05-19T10:45:19;99891.86;;;21.92;29.53
49529;BME280;35423;37.320;-121.762;2023-05-19T10:47:46;99894.79;;;21.86;29.60
49529;BME280;35423;37.320;-121.762;2023-05-19T10:50:17;99894.18;;;21.81;29.63
49529;BME280;35423;37.320;-121.762;2023-05-19T10:52:52;99891.72;;;21.75;29.54
49529;BME280;35423;37.320;-121.762;2023-05-19T10:55:12;99885.88;;;21.68;29.66
49529;BME280;35423;37.320;-121.762;2023-05-19T10:57:37;99886.78;;;21.64;29.72
49529;BME280;35423;37.320;-121.762;2023-05-19T11:02:41;99883.57;;;21.54;29.86
49529;BME280;35423;37.320;-121.762;2023-05-19T11:05:08;99885.62;;;21.55;29.91
49529;BME280;35423;37.320;-121.762;2023-05-19T11:07:35;99885.98;;;21.71;29.91
49529;BME280;35423;37.320;-121.762;2023-05-19T11:10:05;99885.88;;;21.69;29.89
49529;BME280;35423;37.320;-121.762;2023-05-19T11:12:25;99886.45;;;21.62;29.90
49529;BME280;35423;37.320;-121.762;2023-05-19T11:14:52;99883.55;;;21.31;29.95
49529;BME280;35423;37.320;-121.762;2023-05-19T11:17:25;99882.08;;;21.49;29.94
49529;BME280;35423;37.320;-121.762;2023-05-19T11:19:53;99879.78;;;21.67;29.98
49529;BME280;35423;37.320;-121.762;2023-05-19T11:22:22;99882.62;;;21.63;29.99
49529;BME280;35423;37.320;-121.762;2023-05-19T11:24:50;99885.36;;;21.40;30.00
49529;BME280;35423;37.320;-121.762;2023-05-19T11:27:19;99888.27;;;21.12;30.09
49529;BME280;35423;37.320;-121.762;2023-05-19T11:29:54;99886.99;;;21.49;30.14
49529;BME280;35423;37.320;-121.762;2023-05-19T11:32:14;99891.30;;;21.21;30.21
49529;BME280;35423;37.320;-121.762;2023-05-19T11:34:47;99896.00;;;21.36;30.30
49529;BME280;35423;37.320;-121.762;2023-05-19T11:37:12;99898.84;;;21.33;30.35
49529;BME280;35423;37.320;-121.762;2023-05-19T11:39:36;99902.08;;;21.29;30.41
49529;BME280;35423;37.320;-121.762;2023-05-19T11:42:02;99902.89;;;21.24;30.53
49529;BME280;35423;37.320;-121.762;2023-05-19T11:44:27;99906.36;;;21.21;30.61
49529;BME280;35423;37.320;-121.762;2023-05-19T11:46:54;99907.52;;;21.18;30.65
49529;BME280;35423;37.320;-121.762;2023-05-19T11:49:23;99913.66;;;21.16;30.70
49529;BME280;35423;37.320;-121.762;2023-05-19T11:51:49;99911.26;;;21.15;30.71
49529;BME280;35423;37.320;-121.762;2023-05-19T11:54:15;99910.37;;;21.08;30.70
49529;BME280;35423;37.320;-121.762;2023-05-19T11:56:42;99911.08;;;20.78;30.75
49529;BME280;35423;37.320;-121.762;2023-05-19T11:59:13;99909.30;;;21.20;30.80
49529;BME280;35423;37.320;-121.762;2023-05-19T12:01:38;99910.67;;;21.37;30.86
49529;BME280;35423;37.320;-121.762;2023-05-19T12:04:09;99911.43;;;20.84;30.91
49529;BME280;35423;37.320;-121.762;2023-05-19T12:06:36;99917.51;;;21.11;30.90
49529;BME280;35423;37.320;-121.762;2023-05-19T12:09:17;99917.53;;;20.79;30.94
49529;BME280;35423;37.320;-121.762;2023-05-19T12:11:49;99915.97;;;20.76;30.96
49529;BME280;35423;37.320;-121.762;2023-05-19T12:14:17;99917.40;;;20.72;30.92
49529;BME280;35423;37.320;-121.762;2023-05-19T12:16:43;99920.76;;;20.66;30.99
49529;BME280;35423;37.320;-121.762;2023-05-19T12:19:16;99916.59;;;20.87;31.08
49529;BME280;35423;37.320;-121.762;2023-05-19T12:21:42;99920.82;;;20.83;31.10
49529;BME280;35423;37.320;-121.762;2023-05-19T12:24:16;99923.81;;;20.75;31.15
49529;BME280;35423;37.320;-121.762;2023-05-19T12:26:41;99927.80;;;20.70;31.22
49529;BME280;35423;37.320;-121.762;2023-05-19T12:29:13;99931.67;;;20.66;31.27
49529;BME280;35423;37.320;-121.762;2023-05-19T12:31:38;99932.08;;;20.59;31.27
49529;BME280;35423;37.320;-121.762;2023-05-19T12:34:05;99932.78;;;20.78;31.26
49529;BME280;35423;37.320;-121.762;2023-05-19T12:36:32;99934.74;;;20.47;31.30
49529;BME280;35423;37.320;-121.762;2023-05-19T12:38:58;99934.04;;;20.41;31.35
49529;BME280;35423;37.320;-121.762;2023-05-19T12:41:26;99934.47;;;20.60;31.36
49529;BME280;35423;37.320;-121.762;2023-05-19T12:43:54;99935.98;;;20.55;31.43